sensor_id;sensor_type;location;lat;lon;timestamp;pressure;altitude;pressure_sealevel;temperature;humidity
32033;BME280;31720;52.638;9.216;2023-06-01T00:00:39;101999.31;;;12.76;100.00
32033;BME280;31720;52.638;9.216;2023-06-01T00:03:40;102002.78;;;12.76;100.00
32033;BME280;31720;52.638;9.216;2023-06-01T00:06:42;101997.28;;;12.82;100.00
32033;BME280;31720;52.638;9.216;2023-06-01T00:09:43;102005.03;;;12.65;100.00
32033;BME280;31720;52.638;9.216;2023-06-01T00:12:44;102005.22;;;12.60;100.00
32033;BME280;31720;52.638;9.216;2023-06-01T00:15:47;102000.44;;;12.70;100.00
32033;BME280;31720;52.638;9.216;2023-06-01T00:18:49;102002.34;;;12.66;100.00
32033;BME280;31720;52.638;9.216;2023-06-01T00:21:52;102000.34;;;12.72;100.00
32033;BME280;31720;52.638;9.216;2023-06-01T00:24:55;102003.25;;;12.65;100.00
32033;BME280;31720;52.638;9.216;2023-06-01T00:27:58;102003.16;;;12.47;100.00
32033;BME280;31720;52.638;9.216;2023-06-01T00:31:00;102007.84;;;12.40;100.00
32033;BME280;31720;52.638;9.216;2023-06-01T00:34:02;102011.38;;;12.39;100.00
32033;BME280;31720;52.638;9.216;2023-06-01T00:37:03;102004.28;;;12.41;100.00
32033;BME280;31720;52.638;9.216;2023-06-01T00:40:06;102004.66;;;12.54;100.00
32033;BME280;31720;52.638;9.216;2023-06-01T00:43:08;102000.41;;;12.50;100.00
32033;BME280;31720;52.638;9.216;2023-06-01T00:46:10;101996.38;;;12.41;100.00
32033;BME280;31720;52.638;9.216;2023-06-01T00:49:14;101991.16;;;12.39;100.00
32033;BME280;31720;52.638;9.216;2023-06-01T00:52:16;101993.56;;;12.46;100.00
32033;BME280;31720;52.638;9.216;2023-06-01T00:55:19;101987.91;;;12.55;100.00
32033;BME280;31720;52.638;9.216;2023-06-01T00:58:21;101992.13;;;12.59;100.00
32033;BME280;31720;52.638;9.216;2023-06-01T01:01:23;101993.16;;;12.55;100.00
32033;BME280;31720;52.638;9.216;2023-06-01T01:04:26;101990.19;;;12.62;100.00
32033;BME280;31720;52.638;9.216;2023-06-01T01:07:32;101988.09;;;12.70;100.00
32033;BME280;31720;52.638;9.216;2023-06-01T01:10:37;101985.53;;;12.69;100.00
32033;BME280;31720;52.638;9.216;2023-06-01T01:13:43;101979.63;;;12.62;100.00
32033;BME280;31720;52.638;9.216;2023-06-01T01:16:54;101978.59;;;12.66;100.00
32033;BME280;31720;52.638;9.216;2023-06-01T01:20:02;101987.81;;;12.56;100.00
32033;BME280;31720;52.638;9.216;2023-06-01T01:23:15;101984.25;;;12.57;100.00
32033;BME280;31720;52.638;9.216;2023-06-01T01:26:34;101969.88;;;12.44;100.00
32033;BME280;31720;52.638;9.216;2023-06-01T01:29:42;101984.97;;;12.40;100.00
32033;BME280;31720;52.638;9.216;2023-06-01T01:32:44;101980.69;;;12.38;100.00
32033;BME280;31720;52.638;9.216;2023-06-01T01:35:45;101977.47;;;12.52;100.00
32033;BME280;31720;52.638;9.216;2023-06-01T01:38:47;101977.94;;;12.61;100.00
32033;BME280;31720;52.638;9.216;2023-06-01T01:41:48;101976.16;;;12.62;100.00
32033;BME280;31720;52.638;9.216;2023-06-01T01:44:51;101974.91;;;12.70;100.00
32033;BME280;31720;52.638;9.216;2023-06-01T01:47:56;101976.97;;;12.64;100.00
32033;BME280;31720;52.638;9.216;2023-06-01T01:51:03;101970.09;;;12.60;100.00
32033;BME280;31720;52.638;9.216;2023-06-01T01:54:10;101974.63;;;12.56;100.00
32033;BME280;31720;52.638;9.216;2023-06-01T01:57:12;101968.78;;;12.50;100.00
32033;BME280;31720;52.638;9.216;2023-06-01T02:00:16;101969.94;;;12.42;100.00
32033;BME280;31720;52.638;9.216;2023-06-01T02:03:18;101965.22;;;12.51;100.00
32033;BME280;31720;52.638;9.216;2023-06-01T02:06:19;101970.94;;;12.40;100.00
32033;BME280;31720;52.638;9.216;2023-06-01T02:09:21;101970.13;;;12.38;100.00
32033;BME280;31720;52.638;9.216;2023-06-01T02:12:22;101970.19;;;12.36;100.00
32033;BME280;31720;52.638;9.216;2023-06-01T02:15:25;101971.72;;;12.20;100.00
32033;BME280;31720;52.638;9.216;2023-06-01T02:18:26;101963.16;;;12.15;100.00
32033;BME280;31720;52.638;9.216;2023-06-01T02:21:29;101965.31;;;12.05;100.00
32033;BME280;31720;52.638;9.216;2023-06-01T02:24:31;101961.88;;;12.03;100.00
32033;BME280;31720;52.638;9.216;2023-06-01T02:27:32;101961.94;;;12.02;100.00
32033;BME280;31720;52.638;9.216;2023-06-01T02:30:36;101962.19;;;11.96;100.00
32033;BME280;31720;52.638;9.216;2023-06-01T02:33:38;101953.63;;;11.90;100.00
32033;BME280;31720;52.638;9.216;2023-06-01T02:36:39;101957.84;;;11.95;100.00
32033;BME280;31720;52.638;9.216;2023-06-01T02:39:41;101959.38;;;12.00;100.00
32033;BME280;31720;52.638;9.216;2023-06-01T02:42:42;101965.56;;;11.99;100.00
32033;BME280;31720;52.638;9.216;2023-06-01T02:45:45;101958.94;;;12.11;100.00
32033;BME280;31720;52.638;9.216;2023-06-01T02:48:46;101961.38;;;12.15;100.00
32033;BME280;31720;52.638;9.216;2023-06-01T02:51:48;101955.75;;;12.03;100.00
32033;BME280;31720;52.638;9.216;2023-06-01T02:54:49;101960.22;;;12.01;100.00
32033;BME280;31720;52.638;9.216;2023-06-01T02:57:50;101952.06;;;12.07;100.00
32033;BME280;31720;52.638;9.216;2023-06-01T03:00:53;101943.59;;;12.21;100.00
32033;BME280;31720;52.638;9.216;2023-06-01T03:03:55;101955.06;;;12.19;100.00
32033;BME280;31720;52.638;9.216;2023-06-01T03:06:56;101937.97;;;12.08;100.00
32033;BME280;31720;52.638;9.216;2023-06-01T03:09:59;101941.97;;;12.18;100.00
32033;BME280;31720;52.638;9.216;2023-06-01T03:13:00;101938.41;;;12.19;100.00
32033;BME280;31720;52.638;9.216;2023-06-01T03:16:03;101934.75;;;12.22;100.00
32033;BME280;31720;52.638;9.216;2023-06-01T03:19:04;101935.66;;;12.22;100.00
32033;BME280;31720;52.638;9.216;2023-06-01T03:22:06;101934.38;;;12.10;100.00
32033;BME280;31720;52.638;9.216;2023-06-01T03:25:08;101937.38;;;12.01;100.00
32033;BME280;31720;52.638;9.216;2023-06-01T03:28:11;101939.53;;;11.91;100.00
32033;BME280;31720;52.638;9.216;2023-06-01T03:31:14;101929.16;;;11.87;100.00
32033;BME280;31720;52.638;9.216;2023-06-01T03:34:15;101936.22;;;11.86;100.00
32033;BME280;31720;52.638;9.216;2023-06-01T03:37:17;101933.72;;;11.82;100.00
32033;BME280;31720;52.638;9.216;2023-06-01T03:40:18;101927.91;;;11.74;100.00
32033;BME280;31720;52.638;9.216;2023-06-01T03:43:19;101936.53;;;11.77;100.00
32033;BME280;31720;52.638;9.216;2023-06-01T03:46:22;101937.78;;;11.67;100.00
32033;BME280;31720;52.638;9.216;2023-06-01T03:49:24;101938.53;;;11.71;100.00
32033;BME280;31720;52.638;9.216;2023-06-01T03:52:25;101947.13;;;11.76;100.00
32033;BME280;31720;52.638;9.216;2023-06-01T03:55:26;101940.66;;;11.84;100.00
32033;BME280;31720;52.638;9.216;2023-06-01T03:58:29;101935.88;;;11.94;100.00
32033;BME280;31720;52.638;9.216;2023-06-01T04:01:32;101936.63;;;11.98;100.00
32033;BME280;31720;52.638;9.216;2023-06-01T04:04:33;101943.50;;;12.02;100.00
32033;BME280;31720;52.638;9.216;2023-06-01T04:07:35;101940.78;;;12.03;100.00
32033;BME280;31720;52.638;9.216;2023-06-01T04:10:37;101929.66;;;11.97;100.00
32033;BME280;31720;52.638;9.216;2023-06-01T04:13:40;101931.44;;;11.96;100.00
32033;BME280;31720;52.638;9.216;2023-06-01T04:16:43;101929.66;;;11.97;100.00
32033;BME280;31720;52.638;9.216;2023-06-01T04:19:47;101930.69;;;11.92;100.00
32033;BME280;31720;52.638;9.216;2023-06-01T04:22:48;101934.00;;;11.98;100.00
32033;BME280;31720;52.638;9.216;2023-06-01T04:25:50;101923.53;;;11.96;100.00
32033;BME280;31720;52.638;9.216;2023-06-01T04:28:51;101922.53;;;11.99;100.00
32033;BME280;31720;52.638;9.216;2023-06-01T04:31:58;101926.09;;;11.98;100.00
32033;BME280;31720;52.638;9.216;2023-06-01T04:34:59;101935.97;;;11.92;100.00
32033;BME280;31720;52.638;9.216;2023-06-01T04:38:01;101928.78;;;11.96;100.00
32033;BME280;31720;52.638;9.216;2023-06-01T04:41:02;101918.56;;;11.88;100.00
32033;BME280;31720;52.638;9.216;2023-06-01T04:44:04;101914.03;;;11.92;100.00
32033;BME280;31720;52.638;9.216;2023-06-01T04:47:08;101917.06;;;12.03;100.00
32033;BME280;31720;52.638;9.216;2023-06-01T04:50:11;101913.78;;;11.98;100.00
32033;BME280;31720;52.638;9.216;2023-06-01T04:53:12;101918.06;;;12.01;100.00
32033;BME280;31720;52.638;9.216;2023-06-01T04:56:14;101914.69;;;11.97;100.00
32033;BME280;31720;52.638;9.216;2023-06-01T04:59:15;101909.31;;;12.00;100.00
32033;BME280;31720;52.638;9.216;2023-06-01T05:02:18;101909.53;;;11.94;100.00
32033;BME280;31720;52.638;9.216;2023-06-01T05:05:20;101911.03;;;12.01;100.00
32033;BME280;31720;52.638;9.216;2023-06-01T05:08:21;101908.28;;;12.04;100.00
32033;BME280;31720;52.638;9.216;2023-06-01T05:11:22;101907.03;;;12.13;100.00
32033;BME280;31720;52.638;9.216;2023-06-01T05:14:24;101913.47;;;12.06;100.00
32033;BME280;31720;52.638;9.216;2023-06-01T05:17:27;101920.44;;;12.07;100.00
32033;BME280;31720;52.638;9.216;2023-06-01T05:20:28;101913.28;;;12.10;100.00
32033;BME280;31720;52.638;9.216;2023-06-01T05:23:29;101902.38;;;11.98;100.00
32033;BME280;31720;52.638;9.216;2023-06-01T05:26:32;101907.78;;;11.95;100.00
32033;BME280;31720;52.638;9.216;2023-06-01T05:29:33;101904.28;;;11.94;100.00
32033;BME280;31720;52.638;9.216;2023-06-01T05:32:36;101907.53;;;12.01;100.00
32033;BME280;31720;52.638;9.216;2023-06-01T05:35:38;101904.41;;;12.13;100.00
32033;BME280;31720;52.638;9.216;2023-06-01T05:38:39;101903.13;;;12.22;100.00
32033;BME280;31720;52.638;9.216;2023-06-01T05:41:40;101905.34;;;12.32;100.00
32033;BME280;31720;52.638;9.216;2023-06-01T05:44:42;101903.22;;;12.20;100.00
32033;BME280;31720;52.638;9.216;2023-06-01T05:47:44;101912.25;;;12.14;100.00
32033;BME280;31720;52.638;9.216;2023-06-01T05:50:46;101913.41;;;12.07;100.00
32033;BME280;31720;52.638;9.216;2023-06-01T05:53:47;101902.53;;;11.95;100.00
32033;BME280;31720;52.638;9.216;2023-06-01T05:56:49;101901.63;;;11.94;100.00
32033;BME280;31720;52.638;9.216;2023-06-01T05:59:50;101902.63;;;11.91;100.00
32033;BME280;31720;52.638;9.216;2023-06-01T06:02:55;101909.44;;;11.97;100.00
32033;BME280;31720;52.638;9.216;2023-06-01T06:05:56;101902.19;;;12.02;100.00
32033;BME280;31720;52.638;9.216;2023-06-01T06:08:57;101907.28;;;12.07;100.00
32033;BME280;31720;52.638;9.216;2023-06-01T06:11:59;101910.09;;;12.02;100.00
32033;BME280;31720;52.638;9.216;2023-06-01T06:15:01;101908.13;;;12.07;100.00
32033;BME280;31720;52.638;9.216;2023-06-01T06:18:05;101899.81;;;12.18;100.00
32033;BME280;31720;52.638;9.216;2023-06-01T06:21:07;101907.56;;;12.21;100.00
32033;BME280;31720;52.638;9.216;2023-06-01T06:24:08;101911.50;;;12.11;100.00
32033;BME280;31720;52.638;9.216;2023-06-01T06:27:09;101910.75;;;12.07;100.00
32033;BME280;31720;52.638;9.216;2023-06-01T06:30:11;101907.28;;;12.07;100.00
32033;BME280;31720;52.638;9.216;2023-06-01T06:33:13;101913.09;;;12.15;100.00
32033;BME280;31720;52.638;9.216;2023-06-01T06:36:15;101910.66;;;12.10;100.00
32033;BME280;31720;52.638;9.216;2023-06-01T06:39:17;101912.34;;;12.11;100.00
32033;BME280;31720;52.638;9.216;2023-06-01T06:42:18;101908.00;;;12.10;100.00
32033;BME280;31720;52.638;9.216;2023-06-01T06:45:20;101911.56;;;12.09;100.00
32033;BME280;31720;52.638;9.216;2023-06-01T06:48:22;101911.19;;;12.18;100.00
32033;BME280;31720;52.638;9.216;2023-06-01T06:51:24;101919.97;;;12.19;100.00
32033;BME280;31720;52.638;9.216;2023-06-01T06:54:25;101916.84;;;12.09;100.00
32033;BME280;31720;52.638;9.216;2023-06-01T06:57:26;101924.56;;;12.14;100.00
32033;BME280;31720;52.638;9.216;2023-06-01T07:00:28;101917.59;;;12.13;100.00
32033;BME280;31720;52.638;9.216;2023-06-01T07:03:30;101919.66;;;12.05;100.00
32033;BME280;31720;52.638;9.216;2023-06-01T07:06:32;101920.59;;;12.04;100.00
32033;BME280;31720;52.638;9.216;2023-06-01T07:09:34;101919.78;;;12.02;100.00
32033;BME280;31720;52.638;9.216;2023-06-01T07:12:35;101918.16;;;11.99;100.00
32033;BME280;31720;52.638;9.216;2023-06-01T07:15:36;101923.81;;;12.10;100.00
32033;BME280;31720;52.638;9.216;2023-06-01T07:18:39;101919.41;;;12.11;100.00
32033;BME280;31720;52.638;9.216;2023-06-01T07:21:40;101918.63;;;12.09;100.00
32033;BME280;31720;52.638;9.216;2023-06-01T07:24:42;101921.06;;;12.13;100.00
32033;BME280;31720;52.638;9.216;2023-06-01T07:27:44;101921.19;;;12.10;100.00
32033;BME280;31720;52.638;9.216;2023-06-01T07:30:48;101917.44;;;12.16;100.00
32033;BME280;31720;52.638;9.216;2023-06-01T07:33:50;101917.19;;;12.22;100.00
32033;BME280;31720;52.638;9.216;2023-06-01T07:36:52;101916.19;;;12.25;100.00
32033;BME280;31720;52.638;9.216;2023-06-01T07:39:58;101920.16;;;12.35;100.00
32033;BME280;31720;52.638;9.216;2023-06-01T07:43:00;101914.69;;;12.39;100.00
32033;BME280;31720;52.638;9.216;2023-06-01T07:46:02;101918.44;;;12.34;100.00
32033;BME280;31720;52.638;9.216;2023-06-01T07:49:04;101915.94;;;12.31;100.00
32033;BME280;31720;52.638;9.216;2023-06-01T07:52:06;101913.84;;;12.18;100.00
32033;BME280;31720;52.638;9.216;2023-06-01T07:55:07;101915.03;;;12.32;100.00
32033;BME280;31720;52.638;9.216;2023-06-01T07:58:10;101917.13;;;12.44;100.00
32033;BME280;31720;52.638;9.216;2023-06-01T08:01:11;101917.41;;;12.38;100.00
32033;BME280;31720;52.638;9.216;2023-06-01T08:04:14;101907.19;;;12.51;100.00
32033;BME280;31720;52.638;9.216;2023-06-01T08:07:16;101912.47;;;12.51;100.00
32033;BME280;31720;52.638;9.216;2023-06-01T08:10:19;101917.56;;;12.55;100.00
32033;BME280;31720;52.638;9.216;2023-06-01T08:13:20;101915.03;;;12.52;100.00
32033;BME280;31720;52.638;9.216;2023-06-01T08:16:21;101922.09;;;12.52;100.00
32033;BME280;31720;52.638;9.216;2023-06-01T08:19:24;101919.56;;;12.49;100.00
32033;BME280;31720;52.638;9.216;2023-06-01T08:22:26;101919.97;;;12.39;100.00
32033;BME280;31720;52.638;9.216;2023-06-01T08:25:29;101905.50;;;12.50;100.00
32033;BME280;31720;52.638;9.216;2023-06-01T08:28:30;101911.47;;;12.53;100.00
32033;BME280;31720;52.638;9.216;2023-06-01T08:31:32;101907.94;;;12.54;100.00
32033;BME280;31720;52.638;9.216;2023-06-01T08:34:35;101903.94;;;12.44;100.00
32033;BME280;31720;52.638;9.216;2023-06-01T08:37:36;101906.28;;;12.52;100.00
32033;BME280;31720;52.638;9.216;2023-06-01T08:40:38;101898.09;;;12.58;100.00
32033;BME280;31720;52.638;9.216;2023-06-01T08:43:40;101898.69;;;12.64;100.00
32033;BME280;31720;52.638;9.216;2023-06-01T08:46:42;101897.63;;;12.68;100.00
32033;BME280;31720;52.638;9.216;2023-06-01T08:49:45;101895.00;;;12.68;100.00
32033;BME280;31720;52.638;9.216;2023-06-01T08:52:47;101902.00;;;12.69;100.00
32033;BME280;31720;52.638;9.216;2023-06-01T08:55:51;101901.69;;;12.76;100.00
32033;BME280;31720;52.638;9.216;2023-06-01T08:58:53;101897.16;;;12.79;100.00
32033;BME280;31720;52.638;9.216;2023-06-01T09:01:57;101901.50;;;12.80;100.00
32033;BME280;31720;52.638;9.216;2023-06-01T09:04:59;101897.28;;;12.76;100.00
32033;BME280;31720;52.638;9.216;2023-06-01T09:08:02;101905.47;;;12.70;100.00
32033;BME280;31720;52.638;9.216;2023-06-01T09:11:03;101902.34;;;12.81;100.00
32033;BME280;31720;52.638;9.216;2023-06-01T09:14:19;101898.53;;;12.88;100.00
32033;BME280;31720;52.638;9.216;2023-06-01T09:17:23;101892.28;;;12.90;100.00
32033;BME280;31720;52.638;9.216;2023-06-01T09:20:27;101891.00;;;12.99;100.00
32033;BME280;31720;52.638;9.216;2023-06-01T09:23:29;101889.28;;;12.98;100.00
32033;BME280;31720;52.638;9.216;2023-06-01T09:26:30;101884.84;;;12.99;100.00
32033;BME280;31720;52.638;9.216;2023-06-01T09:29:32;101881.94;;;13.05;100.00
32033;BME280;31720;52.638;9.216;2023-06-01T09:32:33;101881.66;;;13.11;100.00
32033;BME280;31720;52.638;9.216;2023-06-01T09:35:40;101888.66;;;13.12;100.00
32033;BME280;31720;52.638;9.216;2023-06-01T09:38:42;101885.88;;;13.15;100.00
32033;BME280;31720;52.638;9.216;2023-06-01T09:41:44;101879.53;;;13.19;100.00
32033;BME280;31720;52.638;9.216;2023-06-01T09:44:45;101880.91;;;13.09;100.00
32033;BME280;31720;52.638;9.216;2023-06-01T09:47:47;101872.25;;;13.05;100.00
32033;BME280;31720;52.638;9.216;2023-06-01T09:50:50;101874.75;;;13.08;100.00
32033;BME280;31720;52.638;9.216;2023-06-01T09:53:51;101867.81;;;13.06;100.00
32033;BME280;31720;52.638;9.216;2023-06-01T09:56:53;101867.81;;;13.06;100.00
32033;BME280;31720;52.638;9.216;2023-06-01T09:59:55;101872.16;;;13.07;100.00
32033;BME280;31720;52.638;9.216;2023-06-01T10:02:56;101873.75;;;13.11;100.00
32033;BME280;31720;52.638;9.216;2023-06-01T10:05:59;101873.88;;;13.08;100.00
32033;BME280;31720;52.638;9.216;2023-06-01T10:09:01;101876.59;;;13.06;100.00
32033;BME280;31720;52.638;9.216;2023-06-01T10:12:03;101866.91;;;13.07;100.00
32033;BME280;31720;52.638;9.216;2023-06-01T10:15:06;101865.91;;;13.09;100.00
32033;BME280;31720;52.638;9.216;2023-06-01T10:18:08;101875.66;;;13.07;100.00
32033;BME280;31720;52.638;9.216;2023-06-01T10:21:11;101874.47;;;13.14;100.00
32033;BME280;31720;52.638;9.216;2023-06-01T10:24:13;101873.22;;;13.23;100.00
32033;BME280;31720;52.638;9.216;2023-06-01T10:27:20;101869.09;;;13.16;100.00
32033;BME280;31720;52.638;9.216;2023-06-01T10:30:23;101869.84;;;13.19;100.00
32033;BME280;31720;52.638;9.216;2023-06-01T10:33:51;101865.75;;;13.12;100.00
32033;BME280;31720;52.638;9.216;2023-06-01T10:37:14;101860.88;;;13.03;100.00
32033;BME280;31720;52.638;9.216;2023-06-01T10:40:20;101861.63;;;13.07;100.00
32033;BME280;31720;52.638;9.216;2023-06-01T10:43:40;101860.69;;;13.08;100.00
32033;BME280;31720;52.638;9.216;2023-06-01T10:46:42;101853.56;;;13.10;100.00
32033;BME280;31720;52.638;9.216;2023-06-01T10:50:08;101860.97;;;13.20;100.00
32033;BME280;31720;52.638;9.216;2023-06-01T10:53:31;101858.75;;;13.11;100.00
32033;BME280;31720;52.638;9.216;2023-06-01T10:56:33;101856.94;;;13.13;100.00
32033;BME280;31720;52.638;9.216;2023-06-01T10:59:34;101854.66;;;13.25;100.00
32033;BME280;31720;52.638;9.216;2023-06-01T11:02:42;101854.66;;;13.25;100.00
32033;BME280;31720;52.638;9.216;2023-06-01T11:05:45;101849.38;;;13.25;100.00
32033;BME280;31720;52.638;9.216;2023-06-01T11:08:57;101843.63;;;13.35;100.00
32033;BME280;31720;52.638;9.216;2023-06-01T11:11:59;101847.88;;;13.38;100.00
32033;BME280;31720;52.638;9.216;2023-06-01T11:15:08;101842.28;;;13.44;100.00
32033;BME280;31720;52.638;9.216;2023-06-01T11:18:42;101844.47;;;13.36;100.00
32033;BME280;31720;52.638;9.216;2023-06-01T11:21:43;101843.63;;;13.35;100.00
32033;BME280;31720;52.638;9.216;2023-06-01T11:24:46;101841.66;;;13.39;100.00
32033;BME280;31720;52.638;9.216;2023-06-01T11:27:54;101840.97;;;13.35;100.00
32033;BME280;31720;52.638;9.216;2023-06-01T11:30:56;101840.97;;;13.35;100.00
32033;BME280;31720;52.638;9.216;2023-06-01T11:33:58;101831.69;;;13.45;100.00
32033;BME280;31720;52.638;9.216;2023-06-01T11:37:01;101840.31;;;13.49;100.00
32033;BME280;31720;52.638;9.216;2023-06-01T11:40:08;101840.53;;;13.44;100.00
32033;BME280;31720;52.638;9.216;2023-06-01T11:43:10;101844.03;;;13.45;100.00
32033;BME280;31720;52.638;9.216;2023-06-01T11:46:12;101840.47;;;13.46;100.00
32033;BME280;31720;52.638;9.216;2023-06-01T11:49:14;101826.66;;;13.58;100.00
32033;BME280;31720;52.638;9.216;2023-06-01T11:52:16;101840.34;;;13.66;100.00
32033;BME280;31720;52.638;9.216;2023-06-01T11:55:19;101832.00;;;13.57;100.00
32033;BME280;31720;52.638;9.216;2023-06-01T11:58:22;101838.78;;;13.62;100.00
32033;BME280;31720;52.638;9.216;2023-06-01T12:01:24;101825.72;;;13.59;100.00
32033;BME280;31720;52.638;9.216;2023-06-01T12:04:25;101828.19;;;13.62;100.00
32033;BME280;31720;52.638;9.216;2023-06-01T12:07:27;101830.72;;;13.65;100.00
32033;BME280;31720;52.638;9.216;2023-06-01T12:10:31;101821.56;;;13.73;100.00
32033;BME280;31720;52.638;9.216;2023-06-01T12:13:32;101816.69;;;13.82;100.00
32033;BME280;31720;52.638;9.216;2023-06-01T12:16:54;101818.84;;;13.91;100.00
32033;BME280;31720;52.638;9.216;2023-06-01T12:19:56;101816.69;;;14.00;99.40
32033;BME280;31720;52.638;9.216;2023-06-01T12:22:58;101816.31;;;13.90;98.14
32033;BME280;31720;52.638;9.216;2023-06-01T12:26:04;101810.94;;;13.91;99.73
32033;BME280;31720;52.638;9.216;2023-06-01T12:29:07;101809.84;;;13.95;98.61
32033;BME280;31720;52.638;9.216;2023-06-01T12:32:09;101808.19;;;13.93;98.22
32033;BME280;31720;52.638;9.216;2023-06-01T12:35:11;101814.72;;;14.03;96.26
32033;BME280;31720;52.638;9.216;2023-06-01T12:38:13;101822.22;;;13.95;95.09
32033;BME280;31720;52.638;9.216;2023-06-01T12:41:16;101814.91;;;14.00;95.19
32033;BME280;31720;52.638;9.216;2023-06-01T12:44:19;101821.34;;;14.12;95.17
32033;BME280;31720;52.638;9.216;2023-06-01T12:47:21;101811.59;;;14.12;92.35
32033;BME280;31720;52.638;9.216;2023-06-01T12:50:23;101809.19;;;14.25;93.95
32033;BME280;31720;52.638;9.216;2023-06-01T12:53:24;101804.28;;;14.35;90.46
32033;BME280;31720;52.638;9.216;2023-06-01T12:56:27;101808.25;;;14.61;91.39
32033;BME280;31720;52.638;9.216;2023-06-01T12:59:28;101804.50;;;14.65;90.74
32033;BME280;31720;52.638;9.216;2023-06-01T13:02:33;101806.75;;;14.73;89.24
32033;BME280;31720;52.638;9.216;2023-06-01T13:05:34;101801.84;;;14.65;90.44
32033;BME280;31720;52.638;9.216;2023-06-01T13:08:36;101799.53;;;14.59;90.29
32033;BME280;31720;52.638;9.216;2023-06-01T13:11:39;101800.06;;;14.65;89.59
32033;BME280;31720;52.638;9.216;2023-06-01T13:14:40;101798.59;;;14.60;92.77
32033;BME280;31720;52.638;9.216;2023-06-01T13:17:42;101799.97;;;14.67;89.85
32033;BME280;31720;52.638;9.216;2023-06-01T13:20:43;101800.44;;;14.58;91.12
32033;BME280;31720;52.638;9.216;2023-06-01T13:23:44;101798.19;;;14.67;88.71
32033;BME280;31720;52.638;9.216;2023-06-01T13:26:47;101788.91;;;14.76;86.86
32033;BME280;31720;52.638;9.216;2023-06-01T13:29:48;101795.41;;;14.86;86.96
32033;BME280;31720;52.638;9.216;2023-06-01T13:32:50;101781.13;;;14.89;86.04
32033;BME280;31720;52.638;9.216;2023-06-01T13:35:51;101777.22;;;14.96;85.88
32033;BME280;31720;52.638;9.216;2023-06-01T13:38:53;101783.34;;;15.12;87.30
32033;BME280;31720;52.638;9.216;2023-06-01T13:41:55;101775.84;;;15.20;84.24
32033;BME280;31720;52.638;9.216;2023-06-01T13:44:57;101776.56;;;15.08;83.58
32033;BME280;31720;52.638;9.216;2023-06-01T13:47:58;101775.34;;;15.14;84.76
32033;BME280;31720;52.638;9.216;2023-06-01T13:50:59;101775.69;;;15.08;83.99
32033;BME280;31720;52.638;9.216;2023-06-01T13:54:01;101772.69;;;14.98;85.39
32033;BME280;31720;52.638;9.216;2023-06-01T13:57:04;101781.66;;;14.95;84.86
32033;BME280;31720;52.638;9.216;2023-06-01T14:00:06;101774.16;;;15.04;86.62
32033;BME280;31720;52.638;9.216;2023-06-01T14:03:09;101778.16;;;15.11;84.90
32033;BME280;31720;52.638;9.216;2023-06-01T14:06:10;101779.03;;;14.95;86.22
32033;BME280;31720;52.638;9.216;2023-06-01T14:09:11;101785.06;;;14.97;87.54
32033;BME280;31720;52.638;9.216;2023-06-01T14:12:14;101773.72;;;14.95;86.53
32033;BME280;31720;52.638;9.216;2023-06-01T14:15:16;101765.53;;;15.00;85.10
32033;BME280;31720;52.638;9.216;2023-06-01T14:18:17;101774.22;;;15.02;86.38
32033;BME280;31720;52.638;9.216;2023-06-01T14:21:19;101765.09;;;15.08;88.79
32033;BME280;31720;52.638;9.216;2023-06-01T14:24:20;101773.72;;;15.11;88.11
32033;BME280;31720;52.638;9.216;2023-06-01T14:27:22;101769.53;;;15.07;83.85
32033;BME280;31720;52.638;9.216;2023-06-01T14:30:24;101770.22;;;14.95;86.44
32033;BME280;31720;52.638;9.216;2023-06-01T14:33:27;101772.78;;;14.96;83.68
32033;BME280;31720;52.638;9.216;2023-06-01T14:36:28;101764.50;;;14.87;85.40
32033;BME280;31720;52.638;9.216;2023-06-01T14:39:30;101766.34;;;14.85;84.98
32033;BME280;31720;52.638;9.216;2023-06-01T14:42:33;101761.19;;;14.99;85.00
32033;BME280;31720;52.638;9.216;2023-06-01T14:45:34;101752.19;;;15.02;83.70
32033;BME280;31720;52.638;9.216;2023-06-01T14:48:35;101755.00;;;14.98;83.72
32033;BME280;31720;52.638;9.216;2023-06-01T14:51:37;101753.41;;;14.96;84.48
32033;BME280;31720;52.638;9.216;2023-06-01T14:54:38;101752.81;;;14.91;84.36
32033;BME280;31720;52.638;9.216;2023-06-01T14:57:41;101756.47;;;14.88;85.37
32033;BME280;31720;52.638;9.216;2023-06-01T15:00:42;101744.09;;;14.89;85.51
32033;BME280;31720;52.638;9.216;2023-06-01T15:03:43;101738.03;;;15.03;83.95
32033;BME280;31720;52.638;9.216;2023-06-01T15:06:45;101737.69;;;15.09;81.70
32033;BME280;31720;52.638;9.216;2023-06-01T15:09:46;101736.31;;;15.02;83.01
32033;BME280;31720;52.638;9.216;2023-06-01T15:12:49;101741.34;;;15.06;81.22
32033;BME280;31720;52.638;9.216;2023-06-01T15:15:51;101735.56;;;15.00;81.16
32033;BME280;31720;52.638;9.216;2023-06-01T15:18:53;101732.50;;;14.91;82.28
32033;BME280;31720;52.638;9.216;2023-06-01T15:21:54;101729.94;;;14.90;82.16
32033;BME280;31720;52.638;9.216;2023-06-01T15:24:56;101730.00;;;14.88;82.68
32033;BME280;31720;52.638;9.216;2023-06-01T15:27:58;101732.31;;;14.94;83.65
32033;BME280;31720;52.638;9.216;2023-06-01T15:31:00;101727.44;;;14.87;84.21
32033;BME280;31720;52.638;9.216;2023-06-01T15:34:01;101726.66;;;14.85;82.30
32033;BME280;31720;52.638;9.216;2023-06-01T15:37:04;101731.28;;;14.97;82.99
32033;BME280;31720;52.638;9.216;2023-06-01T15:40:13;101722.84;;;14.90;82.13
32033;BME280;31720;52.638;9.216;2023-06-01T15:43:16;101727.94;;;14.93;80.56
32033;BME280;31720;52.638;9.216;2023-06-01T15:46:17;101719.66;;;14.84;81.44